Time;durP1;ratioP1;P1;durP2;ratioP2;P2;SDS_P1;SDS_P2;PMS_P1;PMS_P2;Temp;Humidity;BMP_temperature;BMP_pressure;BME280_temperature;BME280_humidity;BME280_pressure;Samples;Min_cycle;Max_cycle;Signal;HPM_P1;HPM_P2
2023/08/07 00:00:44;;;;;;;6.25;2.10;;;;;;;14.21;100.00;99529.75;5032958;28;20760;-65
2023/08/07 00:03:17;;;;;;;3.33;2.17;;;;;;;14.21;100.00;99521.81;5029101;28;20080;-64
2023/08/07 00:05:46;;;;;;;4.28;3.00;;;;;;;14.18;100.00;99522.97;5030661;28;20136;-66
2023/08/07 00:08:13;;;;;;;6.47;2.70;;;;;;;14.18;100.00;99522.09;5025660;28;20614;-65
2023/08/07 00:10:41;;;;;;;4.00;2.30;;;;;;;14.20;100.00;99514.88;5027836;28;20119;-65
2023/08/07 00:13:08;;;;;;;6.07;2.75;;;;;;;14.24;100.00;99526.00;5030420;28;20057;-65
2023/08/07 00:15:38;;;;;;;3.17;2.58;;;;;;;14.20;100.00;99520.16;5024928;28;20107;-65
2023/08/07 00:18:05;;;;;;;4.15;2.28;;;;;;;14.22;100.00;99530.59;5031866;28;20081;-64
2023/08/07 00:20:32;;;;;;;7.63;3.33;;;;;;;14.18;100.00;99528.25;5026786;28;20145;-65
2023/08/07 00:23:00;;;;;;;5.90;3.60;;;;;;;14.21;100.00;99521.00;5029588;28;20073;-64
2023/08/07 00:25:27;;;;;;;4.35;2.47;;;;;;;14.27;100.00;99525.72;5031103;28;20057;-65
2023/08/07 00:27:54;;;;;;;7.15;3.15;;;;;;;14.23;100.00;99517.25;5039050;28;20128;-64
2023/08/07 00:30:21;;;;;;;3.45;2.47;;;;;;;14.22;100.00;99520.00;5054303;28;20037;-64
2023/08/07 00:32:52;;;;;;;4.43;3.10;;;;;;;14.25;100.00;99517.09;5048944;28;20087;-65
2023/08/07 00:35:21;;;;;;;5.53;3.08;;;;;;;14.23;100.00;99511.94;5049682;28;20063;-65
2023/08/07 00:37:48;;;;;;;5.80;3.30;;;;;;;14.20;100.00;99512.22;5033721;28;20045;-65
2023/08/07 00:40:17;;;;;;;4.68;3.08;;;;;;;14.25;100.00;99507.34;5031034;28;20116;-66
2023/08/07 00:42:44;;;;;;;6.05;3.38;;;;;;;14.22;100.00;99504.13;5030908;28;21823;-64
2023/08/07 00:45:11;;;;;;;7.15;3.58;;;;;;;14.23;100.00;99511.94;5033488;28;20477;-64
2023/08/07 00:47:39;;;;;;;5.22;3.03;;;;;;;14.26;100.00;99508.16;5030985;28;20103;-65
2023/08/07 00:50:07;;;;;;;5.50;3.40;;;;;;;14.23;100.00;99505.78;5031028;28;20072;-67
2023/08/07 00:52:34;;;;;;;4.75;3.50;;;;;;;14.20;100.00;99509.56;5027591;28;20060;-66
2023/08/07 00:55:03;;;;;;;7.40;3.80;;;;;;;14.22;100.00;99504.97;5033582;28;20129;-67
2023/08/07 00:57:30;;;;;;;7.05;3.75;;;;;;;14.23;100.00;99514.59;5032608;28;20478;-64
2023/08/07 00:59:58;;;;;;;5.95;3.25;;;;;;;14.24;100.00;99516.25;5047767;28;20057;-64
2023/08/07 01:02:26;;;;;;;7.63;3.42;;;;;;;14.27;100.00;99515.97;5028278;28;20073;-64
2023/08/07 01:04:53;;;;;;;5.43;3.17;;;;;;;14.23;100.00;99505.78;5028921;28;20064;-65
2023/08/07 01:07:20;;;;;;;4.28;3.15;;;;;;;14.22;100.00;99507.59;5030506;28;20083;-64
2023/08/07 01:09:48;;;;;;;6.05;3.10;;;;;;;14.23;100.00;99503.16;5026558;28;20167;-65
2023/08/07 01:12:18;;;;;;;9.00;3.50;;;;;;;14.21;100.00;99502.47;5032277;28;20077;-66
2023/08/07 01:14:58;;;;;;;8.13;3.30;;;;;;;14.21;100.00;99502.47;5036010;28;20146;-66
2023/08/07 01:17:26;;;;;;;6.50;3.40;;;;;;;14.25;100.00;99502.03;5029770;28;20099;-66
2023/08/07 01:19:55;;;;;;;5.50;3.15;;;;;;;14.26;100.00;99516.13;5030352;28;20053;-65
2023/08/07 01:22:22;;;;;;;6.70;3.45;;;;;;;14.20;100.00;99506.94;5031960;28;20057;-66
2023/08/07 01:24:50;;;;;;;7.47;3.08;;;;;;;14.22;100.00;99512.06;5028295;28;20068;-66
2023/08/07 01:27:17;;;;;;;3.83;3.40;;;;;;;14.24;100.00;99505.66;5031173;28;20111;-65
2023/08/07 01:30:22;;;;;;;5.72;3.00;;;;;;;14.22;100.00;99501.47;5029967;28;20153;-64
2023/08/07 01:33:05;;;;;;;5.68;2.80;;;;;;;14.23;100.00;99488.13;5029040;28;20049;-64
2023/08/07 01:35:42;;;;;;;6.75;3.05;;;;;;;14.22;100.00;99475.84;5029626;28;20115;-67
2023/08/07 01:38:11;;;;;;;6.90;2.83;;;;;;;14.23;100.00;99481.97;5027598;28;20466;-65
2023/08/07 01:40:39;;;;;;;4.65;3.05;;;;;;;14.20;100.00;99475.16;5025568;28;20532;-66
2023/08/07 01:43:06;;;;;;;8.77;3.15;;;;;;;14.22;100.00;99465.25;5031478;28;20045;-66
2023/08/07 01:45:34;;;;;;;5.85;2.83;;;;;;;14.21;100.00;99470.69;5030031;28;20069;-66
2023/08/07 01:48:01;;;;;;;8.38;2.92;;;;;;;14.18;100.00;99459.44;5024153;28;20608;-64
2023/08/07 01:50:29;;;;;;;8.18;3.80;;;;;;;14.16;100.00;99466.66;5027953;28;20096;-65
2023/08/07 01:52:56;;;;;;;4.07;3.25;;;;;;;14.13;100.00;99471.41;5023613;28;20496;-64
2023/08/07 01:55:23;;;;;;;5.55;3.22;;;;;;;14.08;100.00;99471.81;5033429;28;20092;-63
2023/08/07 01:57:51;;;;;;;4.38;3.45;;;;;;;14.06;100.00;99473.78;5023028;28;20077;-63
2023/08/07 02:00:18;;;;;;;7.32;3.22;;;;;;;14.07;100.00;99474.63;5022261;28;20085;-64
2023/08/07 02:02:46;;;;;;;5.55;3.28;;;;;;;14.04;100.00;99470.44;5019155;28;20155;-64
2023/08/07 02:05:14;;;;;;;7.60;3.78;;;;;;;14.02;100.00;99475.03;5019161;28;20169;-64
2023/08/07 02:07:42;;;;;;;6.60;3.58;;;;;;;13.97;100.00;99474.63;5017865;28;20567;-63
2023/08/07 02:10:09;;;;;;;7.82;4.13;;;;;;;13.96;100.00;99475.63;5017216;28;21414;-64
2023/08/07 02:12:37;;;;;;;9.05;3.30;;;;;;;13.96;100.00;99469.47;5018012;28;20155;-63
2023/08/07 02:15:04;;;;;;;12.73;4.45;;;;;;;13.92;100.00;99476.88;5046838;28;20081;-65
2023/08/07 02:17:32;;;;;;;7.90;3.83;;;;;;;13.91;100.00;99480.47;5024037;28;20045;-65
2023/08/07 02:20:00;;;;;;;4.20;3.55;;;;;;;13.91;100.00;99485.75;5029601;28;20069;-67
2023/08/07 02:22:27;;;;;;;7.13;3.42;;;;;;;13.88;100.00;99486.06;5022487;28;20057;-65
2023/08/07 02:24:54;;;;;;;9.00;4.05;;;;;;;13.88;100.00;99486.88;5006982;28;20057;-67
2023/08/07 02:27:22;;;;;;;6.80;4.25;;;;;;;13.91;100.00;99491.91;5033479;28;20057;-66
2023/08/07 02:29:50;;;;;;;8.52;4.72;;;;;;;13.91;100.00;99493.69;5035384;28;20132;-66
2023/08/07 02:32:18;;;;;;;10.63;4.35;;;;;;;13.99;100.00;99495.66;5019852;28;21694;-64
2023/08/07 02:34:45;;;;;;;9.55;4.85;;;;;;;14.05;100.00;99498.59;5009037;28;20076;-65
2023/08/07 02:37:13;;;;;;;10.45;4.82;;;;;;;14.09;100.00;99499.94;5017152;28;21850;-67
2023/08/07 02:39:40;;;;;;;11.77;4.63;;;;;;;14.12;100.00;99494.38;5020986;28;20053;-66
2023/08/07 02:42:07;;;;;;;12.00;4.72;;;;;;;14.11;100.00;99498.03;5034069;28;20077;-65
2023/08/07 02:44:35;;;;;;;8.23;4.63;;;;;;;14.16;100.00;99502.88;5020672;28;20129;-67
2023/08/07 02:47:02;;;;;;;6.18;4.45;;;;;;;14.23;100.00;99505.78;5019147;28;20180;-65
2023/08/07 02:49:29;;;;;;;12.45;5.53;;;;;;;14.20;100.00;99509.56;5017426;28;20150;-64
2023/08/07 02:51:57;;;;;;;7.70;5.07;;;;;;;14.28;100.00;99516.81;5014244;28;20185;-64
2023/08/07 02:54:24;;;;;;;10.25;5.25;;;;;;;14.29;100.00;99505.25;5048403;22;20602;-64
2023/08/07 02:56:51;;;;;;;13.27;4.72;;;;;;;14.29;100.00;99508.72;5013130;28;20630;-65
2023/08/07 02:59:19;;;;;;;8.13;5.10;;;;;;;14.31;100.00;99505.94;5015342;28;20085;-63
2023/08/07 03:01:46;;;;;;;11.15;5.32;;;;;;;14.32;100.00;99507.59;5025604;28;20103;-64
2023/08/07 03:04:13;;;;;;;12.13;6.15;;;;;;;14.35;100.00;99504.66;5019763;28;20053;-60
2023/08/07 03:06:41;;;;;;;7.85;5.05;;;;;;;14.36;100.00;99503.69;5022849;28;20265;-63
2023/08/07 03:09:08;;;;;;;7.82;4.95;;;;;;;14.36;100.00;99507.19;5016774;28;20062;-63
2023/08/07 03:11:35;;;;;;;14.23;5.70;;;;;;;14.43;100.00;99503.00;5016388;28;20116;-63
2023/08/07 03:14:03;;;;;;;8.32;5.70;;;;;;;14.40;100.00;99515.66;5018508;28;20887;-64
2023/08/07 03:16:30;;;;;;;14.85;5.65;;;;;;;14.42;100.00;99516.38;5023445;28;20081;-63
2023/08/07 03:18:57;;;;;;;12.85;6.60;;;;;;;14.42;100.00;99519.84;5024130;28;20418;-63
2023/08/07 03:21:24;;;;;;;9.93;5.68;;;;;;;14.42;100.00;99509.25;5018163;28;20231;-61
2023/08/07 03:23:52;;;;;;;7.93;5.00;;;;;;;14.42;100.00;99509.25;5019608;28;20405;-63
2023/08/07 03:26:19;;;;;;;16.15;6.50;;;;;;;14.42;100.00;99506.63;5016893;28;20081;-63
2023/08/07 03:28:48;;;;;;;10.57;5.70;;;;;;;14.46;100.00;99501.88;5020310;28;20049;-61
2023/08/07 03:31:16;;;;;;;8.20;5.88;;;;;;;14.47;100.00;99510.66;5020859;28;20128;-64
2023/08/07 03:33:44;;;;;;;13.73;6.18;;;;;;;14.43;100.00;99507.44;5018678;28;20053;-64
2023/08/07 03:36:11;;;;;;;12.07;6.05;;;;;;;14.41;100.00;99506.78;5037833;28;20058;-63
2023/08/07 03:38:38;;;;;;;11.07;6.00;;;;;;;14.39;100.00;99512.19;5026978;28;20049;-64
2023/08/07 03:41:06;;;;;;;12.50;5.88;;;;;;;14.38;100.00;99504.41;5030378;28;20491;-63
2023/08/07 03:43:33;;;;;;;16.00;6.10;;;;;;;14.42;100.00;99514.56;5019677;28;20573;-63
2023/08/07 03:46:00;;;;;;;14.13;6.40;;;;;;;14.42;100.00;99514.56;5021147;28;20058;-63
2023/08/07 03:48:31;;;;;;;11.13;5.90;;;;;;;14.43;100.00;99518.88;5036076;28;20061;-64
2023/08/07 03:51:06;;;;;;;9.32;5.50;;;;;;;14.41;100.00;99514.72;5018741;28;20053;-64
2023/08/07 03:53:33;;;;;;;10.77;6.38;;;;;;;14.44;100.00;99514.41;5029547;28;20077;-64
2023/08/07 03:56:01;;;;;;;11.18;5.93;;;;;;;14.46;100.00;99514.28;5022808;28;20147;-65
2023/08/07 03:58:28;;;;;;;9.88;6.10;;;;;;;14.43;100.00;99516.22;5022988;28;20147;-64
2023/08/07 04:00:56;;;;;;;11.93;6.68;;;;;;;14.50;100.00;99527.13;5024464;28;20085;-63
2023/08/07 04:03:23;;;;;;;9.68;6.50;;;;;;;14.51;100.00;99507.63;5025456;28;20053;-62
2023/08/07 04:05:54;;;;;;;10.15;6.40;;;;;;;14.50;100.00;99516.53;5021099;28;20903;-63
2023/08/07 04:08:22;;;;;;;7.68;5.88;;;;;;;14.53;100.00;99518.88;5031568;28;20095;-64
2023/08/07 04:11:03;;;;;;;9.38;6.20;;;;;;;14.48;100.00;99526.44;5025472;28;20151;-63
2023/08/07 04:13:31;;;;;;;12.80;5.65;;;;;;;14.40;100.00;99519.16;5029607;28;20111;-64
2023/08/07 04:15:58;;;;;;;14.75;6.13;;;;;;;14.46;100.00;99511.63;5022784;28;20077;-65
2023/08/07 04:18:26;;;;;;;7.85;5.68;;;;;;;14.47;100.00;99518.59;5026598;28;20144;-62
2023/08/07 04:20:54;;;;;;;10.15;5.60;;;;;;;14.50;100.00;99520.97;5023368;28;20115;-63
2023/08/07 04:23:22;;;;;;;16.33;6.03;;;;;;;14.56;100.00;99509.84;5031544;28;20030;-63
2023/08/07 04:25:50;;;;;;;11.32;6.20;;;;;;;14.61;100.00;99510.22;5032787;28;21013;-64
2023/08/07 04:28:18;;;;;;;16.13;6.10;;;;;;;14.63;100.00;99522.38;5025744;28;20171;-63
2023/08/07 04:30:49;;;;;;;6.95;5.22;;;;;;;14.67;100.00;99512.28;5021593;28;20050;-64
2023/08/07 04:33:17;;;;;;;9.18;4.93;;;;;;;14.66;100.00;99508.81;5029555;28;20091;-62
2023/08/07 04:35:46;;;;;;;9.43;5.03;;;;;;;14.69;100.00;99510.34;5040290;28;20155;-63
2023/08/07 04:38:14;;;;;;;18.15;5.53;;;;;;;14.59;100.00;99517.47;5038050;28;20080;-63
2023/08/07 04:40:48;;;;;;;9.50;5.45;;;;;;;14.63;100.00;99521.50;5032125;28;20053;-64
2023/08/07 04:43:17;;;;;;;12.13;4.93;;;;;;;14.71;100.00;99518.16;5029120;28;20054;-63
2023/08/07 04:45:45;;;;;;;12.18;5.22;;;;;;;14.68;100.00;99522.78;5029671;28;20567;-63
2023/08/07 04:48:13;;;;;;;8.88;5.43;;;;;;;14.72;100.00;99525.94;5030309;28;20160;-63
2023/08/07 04:50:41;;;;;;;11.07;4.72;;;;;;;14.69;100.00;99536.84;5031351;28;20080;-65
2023/08/07 04:53:09;;;;;;;10.10;4.68;;;;;;;14.68;100.00;99538.66;5037212;28;20064;-64
2023/08/07 04:55:36;;;;;;;9.45;5.22;;;;;;;14.67;100.00;99530.84;5039322;28;20050;-62
2023/08/07 04:58:03;;;;;;;9.32;5.25;;;;;;;14.73;100.00;99532.09;5031364;28;20057;-63
2023/08/07 05:00:31;;;;;;;10.18;4.85;;;;;;;14.87;100.00;99540.41;5029955;28;20156;-62
2023/08/07 05:02:58;;;;;;;7.55;4.18;;;;;;;14.91;100.00;99544.44;5029398;28;20069;-63
2023/08/07 05:05:26;;;;;;;8.07;5.57;;;;;;;14.97;100.00;99544.84;5032028;28;20148;-64
2023/08/07 05:07:54;;;;;;;11.77;4.43;;;;;;;14.94;100.00;99544.16;5030994;28;20049;-63
2023/08/07 05:10:21;;;;;;;9.23;4.47;;;;;;;14.86;100.00;99538.75;5026583;28;20150;-62
2023/08/07 05:12:54;;;;;;;13.85;4.80;;;;;;;14.97;100.00;99535.06;5025037;28;20517;-61
2023/08/07 05:15:23;;;;;;;10.30;4.35;;;;;;;14.93;100.00;99539.81;5022681;28;20052;-63
2023/08/07 05:17:51;;;;;;;5.97;4.43;;;;;;;14.77;100.00;99544.91;5034086;28;20199;-63
2023/08/07 05:20:18;;;;;;;7.57;4.30;;;;;;;14.78;100.00;99543.09;5029933;28;20170;-63
2023/08/07 05:22:45;;;;;;;5.47;3.47;;;;;;;14.79;100.00;99571.25;5027092;28;20136;-61
2023/08/07 05:25:15;;;;;;;7.68;4.43;;;;;;;14.64;100.00;99555.81;5037493;28;20103;-58
2023/08/07 05:27:43;;;;;;;6.72;3.88;;;;;;;14.59;100.00;99550.13;5031329;28;20625;-63
2023/08/07 05:30:11;;;;;;;8.43;4.05;;;;;;;14.68;100.00;99551.91;5033408;28;20453;-64
2023/08/07 05:32:38;;;;;;;8.73;3.80;;;;;;;14.72;100.00;99547.13;5027073;28;20098;-63
2023/08/07 05:35:07;;;;;;;7.97;4.53;;;;;;;14.76;100.00;99553.00;5032039;28;20062;-63
2023/08/07 05:37:34;;;;;;;9.80;4.55;;;;;;;14.67;100.00;99558.16;5027403;28;20172;-63
2023/08/07 05:40:02;;;;;;;9.95;4.13;;;;;;;14.63;100.00;99548.84;5031461;28;20548;-60
2023/08/07 05:42:30;;;;;;;8.73;4.20;;;;;;;14.55;100.00;99561.97;5031778;28;20095;-63
2023/08/07 05:44:58;;;;;;;10.55;4.22;;;;;;;14.65;100.00;99564.59;5030912;28;20081;-63
2023/08/07 05:47:25;;;;;;;5.28;3.80;;;;;;;14.62;100.00;99568.34;5026231;28;20106;-63
2023/08/07 05:49:52;;;;;;;12.05;4.13;;;;;;;14.68;100.00;99577.56;5034074;28;20045;-62
2023/08/07 05:52:20;;;;;;;9.88;4.00;;;;;;;14.63;100.00;99572.69;5026554;28;20141;-64
2023/08/07 05:54:47;;;;;;;10.48;3.70;;;;;;;14.64;100.00;99578.81;5032366;28;20088;-64
2023/08/07 05:57:15;;;;;;;8.40;4.32;;;;;;;14.58;100.00;99579.38;5033160;28;20528;-63
2023/08/07 05:59:42;;;;;;;8.77;3.85;;;;;;;14.57;100.00;99583.84;5036899;28;20081;-64
2023/08/07 06:02:11;;;;;;;6.30;3.85;;;;;;;14.67;100.00;99568.75;5031180;28;20077;-62
2023/08/07 06:04:39;;;;;;;5.93;3.72;;;;;;;14.73;100.00;99570.03;5029055;28;20068;-63
2023/08/07 06:07:07;;;;;;;9.75;3.97;;;;;;;14.81;100.00;99574.59;5034647;28;20458;-63
2023/08/07 06:09:35;;;;;;;10.00;3.97;;;;;;;14.88;100.00;99560.63;5031518;28;20513;-63
2023/08/07 06:12:03;;;;;;;10.48;4.00;;;;;;;14.84;100.00;99564.53;5028303;28;20069;-63
2023/08/07 06:14:30;;;;;;;5.50;3.88;;;;;;;14.99;100.00;99566.72;5026648;28;20395;-64
2023/08/07 06:16:58;;;;;;;5.00;3.22;;;;;;;15.09;100.00;99575.50;5029386;28;20417;-61
2023/08/07 06:19:27;;;;;;;10.70;3.60;;;;;;;15.19;100.00;99584.25;5023122;28;20500;-62
2023/08/07 06:21:58;;;;;;;7.90;3.40;;;;;;;15.18;100.00;99590.53;5032618;28;20057;-63
2023/08/07 06:24:26;;;;;;;8.35;3.65;;;;;;;15.33;100.00;99588.25;5033697;28;20428;-63
2023/08/07 06:26:54;;;;;;;5.05;3.25;;;;;;;15.32;100.00;99600.66;5029675;28;20108;-62
2023/08/07 06:29:21;;;;;;;6.63;3.42;;;;;;;15.42;100.00;99608.56;5026847;28;20064;-62
2023/08/07 06:31:48;;;;;;;9.55;3.30;;;;;;;15.60;100.00;99596.22;5023721;28;20072;-63
2023/08/07 06:34:16;;;;;;;8.35;3.72;;;;;;;15.73;100.00;99608.31;5032134;28;20053;-61
2023/08/07 06:36:43;;;;;;;6.90;2.95;;;;;;;15.85;100.00;99602.69;5030489;28;20417;-61
2023/08/07 06:39:10;;;;;;;9.27;3.38;;;;;;;15.79;100.00;99615.69;5034259;28;20132;-61
2023/08/07 06:41:38;;;;;;;6.82;3.00;;;;;;;15.77;100.00;99612.34;5035804;28;20396;-60
2023/08/07 06:44:06;;;;;;;5.82;3.10;;;;;;;15.90;100.00;99623.47;5034864;28;20524;-61
2023/08/07 06:46:33;;;;;;;6.43;2.90;;;;;;;15.82;100.00;99612.75;5029574;28;20409;-62
2023/08/07 06:49:00;;;;;;;4.35;2.45;;;;;;;15.88;100.00;99612.13;5037198;28;20509;-62
2023/08/07 06:51:28;;;;;;;4.90;3.20;;;;;;;15.89;100.00;99613.81;5033670;28;20041;-62
2023/08/07 06:53:55;;;;;;;8.25;2.90;;;;;;;16.02;99.26;99614.28;5029286;28;20265;-63
2023/08/07 06:56:22;;;;;;;7.43;2.92;;;;;;;15.95;96.90;99622.03;5029255;28;20073;-62
2023/08/07 06:58:50;;;;;;;4.45;2.60;;;;;;;16.15;95.27;99620.06;5031416;28;20045;-61
2023/08/07 07:01:17;;;;;;;8.60;2.55;;;;;;;16.24;92.97;99625.47;5035095;28;20061;-63
2023/08/07 07:03:46;;;;;;;6.90;2.75;;;;;;;16.20;94.06;99619.59;5027201;28;20045;-59
2023/08/07 07:06:14;;;;;;;5.13;2.20;;;;;;;16.24;93.04;99620.16;5034145;28;20050;-61
2023/08/07 07:08:41;;;;;;;4.85;2.33;;;;;;;16.24;92.73;99623.63;5036324;28;20077;-62
2023/08/07 07:11:09;;;;;;;9.93;2.60;;;;;;;16.33;93.37;99619.25;5034864;28;20153;-62
2023/08/07 07:13:37;;;;;;;5.72;2.15;;;;;;;16.43;92.21;99639.41;5031813;28;20087;-62
2023/08/07 07:16:04;;;;;;;4.30;2.30;;;;;;;16.50;90.47;99650.28;5028383;28;20114;-62
2023/08/07 07:18:31;;;;;;;5.22;2.08;;;;;;;16.62;89.89;99632.28;5029909;28;20053;-62
2023/08/07 07:21:00;;;;;;;5.75;2.67;;;;;;;16.69;89.10;99633.34;5035791;28;20061;-60
2023/08/07 07:23:28;;;;;;;5.25;2.42;;;;;;;16.77;87.36;99621.97;5038271;28;20147;-62
2023/08/07 07:25:55;;;;;;;4.63;1.90;;;;;;;16.84;86.52;99637.16;5035446;28;20144;-59
2023/08/07 07:28:22;;;;;;;4.53;2.10;;;;;;;17.00;86.59;99639.09;5035141;28;20472;-60
2023/08/07 07:30:50;;;;;;;3.40;1.70;;;;;;;17.20;84.93;99635.25;5040586;28;20099;-64
2023/08/07 07:33:17;;;;;;;5.53;2.25;;;;;;;17.20;84.47;99634.38;5031896;28;20345;-62
2023/08/07 07:35:44;;;;;;;9.48;2.05;;;;;;;17.19;84.88;99641.53;5035504;28;20045;-61
2023/08/07 07:38:12;;;;;;;4.38;1.92;;;;;;;17.35;83.09;99638.16;5034484;28;20620;-61
2023/08/07 07:40:39;;;;;;;4.78;1.60;;;;;;;17.36;82.59;99641.63;5033103;28;20075;-59
2023/08/07 07:43:06;;;;;;;6.20;2.20;;;;;;;17.27;82.72;99650.56;5036648;28;20588;-62
2023/08/07 07:45:35;;;;;;;7.35;2.22;;;;;;;17.22;81.98;99645.72;5033461;28;20049;-60
2023/08/07 07:48:04;;;;;;;7.28;1.60;;;;;;;17.40;82.59;99643.00;5035144;28;20084;-63
2023/08/07 07:50:31;;;;;;;4.65;1.70;;;;;;;17.49;81.62;99666.00;5036361;28;20582;-63
2023/08/07 07:52:58;;;;;;;12.95;2.55;;;;;;;17.23;82.14;99679.28;5030649;28;20068;-63
2023/08/07 07:55:26;;;;;;;5.63;2.13;;;;;;;17.23;82.38;99667.81;5028806;28;20152;-62
2023/08/07 07:57:54;;;;;;;8.45;2.45;;;;;;;17.20;82.18;99656.53;5036096;28;20088;-60
2023/08/07 08:00:26;;;;;;;6.03;2.13;;;;;;;17.18;84.00;99637.22;5041505;28;20397;-61
2023/08/07 08:02:53;;;;;;;5.50;2.17;;;;;;;17.22;83.34;99667.00;5036896;28;20073;-63
2023/08/07 08:05:21;;;;;;;4.13;1.90;;;;;;;17.33;82.76;99673.88;5039680;28;20088;-61
2023/08/07 08:07:49;;;;;;;2.90;1.48;;;;;;;17.31;83.20;99682.00;5036482;28;20144;-63
2023/08/07 08:10:16;;;;;;;4.40;1.70;;;;;;;17.37;82.47;99676.06;5039339;28;20057;-61
2023/08/07 08:12:43;;;;;;;2.35;1.35;;;;;;;17.43;81.54;99670.13;5038324;28;20444;-62
2023/08/07 08:15:11;;;;;;;4.45;1.77;;;;;;;17.48;81.39;99664.31;5036586;28;20118;-62
2023/08/07 08:17:39;;;;;;;5.60;2.20;;;;;;;17.60;81.75;99668.34;5035745;28;20076;-64
2023/08/07 08:20:07;;;;;;;5.07;1.95;;;;;;;17.55;80.83;99668.00;5029316;28;20049;-63
2023/08/07 08:22:34;;;;;;;2.63;1.70;;;;;;;17.31;82.43;99684.69;5037230;28;20624;-64
2023/08/07 08:25:04;;;;;;;3.75;2.00;;;;;;;17.40;81.89;99681.06;5030727;28;20041;-60
2023/08/07 08:27:31;;;;;;;5.85;1.77;;;;;;;17.39;82.93;99673.25;5035872;28;20249;-63
2023/08/07 08:29:58;;;;;;;5.45;2.00;;;;;;;17.38;83.44;99677.75;5040481;28;20045;-62
2023/08/07 08:32:26;;;;;;;6.00;2.22;;;;;;;17.48;83.54;99676.81;5034233;28;20057;-63
2023/08/07 08:34:53;;;;;;;6.68;2.30;;;;;;;17.59;84.06;99673.84;5041350;28;20099;-62
2023/08/07 08:37:21;;;;;;;5.05;2.15;;;;;;;17.32;85.81;99677.53;5035664;28;20513;-62
2023/08/07 08:39:48;;;;;;;9.32;2.78;;;;;;;17.32;86.39;99682.84;5040389;28;20500;-63
2023/08/07 08:42:18;;;;;;;12.10;2.72;;;;;;;17.50;86.05;99677.47;5037800;28;20072;-63
2023/08/07 08:44:52;;;;;;;7.47;2.45;;;;;;;17.69;85.46;99675.38;5037318;28;20050;-63
2023/08/07 08:47:21;;;;;;;9.32;2.17;;;;;;;17.89;83.73;99691.16;5044245;28;20068;-62
2023/08/07 08:49:51;;;;;;;4.22;2.10;;;;;;;18.00;83.80;99693.53;5033969;28;20180;-63
2023/08/07 08:52:18;;;;;;;7.65;2.28;;;;;;;18.00;82.27;99692.69;5038793;28;21906;-64
2023/08/07 08:54:46;;;;;;;4.25;2.22;;;;;;;18.07;80.97;99696.41;5053572;22;20064;-65
2023/08/07 08:57:14;;;;;;;2.85;2.03;;;;;;;18.25;80.16;99694.47;5035978;28;20076;-64
2023/08/07 08:59:42;;;;;;;6.85;2.33;;;;;;;18.35;79.17;99692.47;5056766;28;20137;-66
2023/08/07 09:02:10;;;;;;;8.85;1.92;;;;;;;18.37;77.24;99678.97;5056080;28;20077;-65
2023/08/07 09:04:37;;;;;;;3.97;1.83;;;;;;;18.20;77.72;99689.63;5061637;28;20102;-65
2023/08/07 09:07:05;;;;;;;3.88;2.05;;;;;;;18.18;76.59;99698.75;5057139;28;20421;-65
2023/08/07 09:09:32;;;;;;;7.93;2.13;;;;;;;18.05;77.43;99685.06;5058588;28;20052;-64
2023/08/07 09:12:01;;;;;;;5.60;2.20;;;;;;;18.28;76.65;99690.63;5056536;28;20136;-64
2023/08/07 09:14:31;;;;;;;4.47;1.70;;;;;;;18.41;76.84;99689.16;5052716;28;20409;-65
2023/08/07 09:17:01;;;;;;;5.10;1.83;;;;;;;18.42;76.15;99695.34;5057260;28;20076;-65
2023/08/07 09:19:28;;;;;;;3.63;2.08;;;;;;;18.36;74.57;99682.66;5055846;28;20372;-65
2023/08/07 09:21:55;;;;;;;4.28;1.83;;;;;;;18.19;74.68;99703.06;5052918;28;20148;-64
2023/08/07 09:24:23;;;;;;;6.85;1.90;;;;;;;18.08;76.22;99692.72;5054581;28;20044;-65
2023/08/07 09:26:53;;;;;;;4.65;2.25;;;;;;;18.17;76.64;99705.09;5055735;28;20140;-65
2023/08/07 09:29:22;;;;;;;2.47;1.70;;;;;;;18.42;76.73;99692.66;5053430;28;20130;-64
2023/08/07 09:31:49;;;;;;;11.80;2.00;;;;;;;18.76;76.80;99699.72;5056282;28;20471;-65
2023/08/07 09:34:20;;;;;;;7.50;1.80;;;;;;;19.20;74.57;99711.72;5061750;28;20131;-66
2023/08/07 09:36:47;;;;;;;3.35;2.05;;;;;;;18.84;74.74;99700.56;5057138;28;20069;-64
2023/08/07 09:39:15;;;;;;;5.88;2.25;;;;;;;18.79;75.16;99721.56;5052950;28;20063;-65
2023/08/07 09:41:42;;;;;;;7.50;2.17;;;;;;;18.81;75.01;99703.56;5055542;28;20045;-65
2023/08/07 09:44:10;;;;;;;8.93;2.20;;;;;;;19.00;74.76;99712.22;5054752;28;20080;-64
2023/08/07 09:46:44;;;;;;;4.82;1.75;;;;;;;18.90;74.67;99707.06;5055245;28;20367;-66
2023/08/07 09:49:12;;;;;;;6.60;2.50;;;;;;;18.90;74.31;99731.91;5057452;28;20064;-65
2023/08/07 09:51:43;;;;;;;4.82;1.85;;;;;;;18.89;75.34;99713.41;5055174;28;20115;-64
2023/08/07 09:54:10;;;;;;;5.75;2.03;;;;;;;18.52;76.60;99725.34;5058118;28;20204;-67
2023/08/07 09:56:38;;;;;;;8.38;2.10;;;;;;;18.44;76.00;99718.16;5061294;28;20069;-65
2023/08/07 09:59:07;;;;;;;4.00;1.75;;;;;;;18.46;76.70;99717.97;5054808;28;20306;-65
2023/08/07 10:01:38;;;;;;;6.13;1.88;;;;;;;18.59;76.06;99717.50;5052502;28;20064;-66
2023/08/07 10:04:07;;;;;;;2.97;1.58;;;;;;;18.39;76.57;99707.16;5058643;28;20539;-66
2023/08/07 10:06:34;;;;;;;7.97;2.42;;;;;;;18.36;78.07;99711.97;5058629;28;20053;-65
2023/08/07 10:09:02;;;;;;;2.65;1.30;;;;;;;18.55;77.55;99714.34;5058831;28;20076;-64
2023/08/07 10:11:29;;;;;;;4.28;2.38;;;;;;;18.95;74.86;99740.22;5052479;28;20079;-64
2023/08/07 10:13:57;;;;;;;4.13;1.63;;;;;;;18.78;74.77;99701.25;5056133;28;20080;-65
2023/08/07 10:16:27;;;;;;;3.83;1.58;;;;;;;18.78;73.57;99730.56;5054804;28;20095;-66
2023/08/07 10:18:55;;;;;;;3.90;1.52;;;;;;;18.53;72.12;99736.81;5050402;28;20057;-65
2023/08/07 10:21:24;;;;;;;3.08;1.40;;;;;;;18.41;72.08;99720.28;5049760;28;20080;-65
2023/08/07 10:23:54;;;;;;;5.15;1.75;;;;;;;18.58;71.86;99715.84;5054687;28;20072;-64
2023/08/07 10:26:22;;;;;;;5.47;1.88;;;;;;;18.60;71.97;99716.53;5055259;28;20132;-66
2023/08/07 10:28:52;;;;;;;3.20;1.60;;;;;;;18.59;71.64;99714.84;5055574;28;20076;-65
2023/08/07 10:31:21;;;;;;;8.57;1.40;;;;;;;18.62;71.10;99712.69;5036442;28;20520;-65
2023/08/07 10:33:48;;;;;;;5.95;1.70;;;;;;;18.78;70.71;99713.72;5052418;28;20506;-64
2023/08/07 10:36:16;;;;;;;7.57;1.90;;;;;;;19.05;70.12;99710.75;5062843;28;20053;-66
2023/08/07 10:38:44;;;;;;;5.15;1.40;;;;;;;18.92;70.00;99713.91;5063556;28;20071;-66
2023/08/07 10:41:14;;;;;;;4.10;1.60;;;;;;;19.26;67.79;99701.38;5094203;28;20535;-66
2023/08/07 10:43:43;;;;;;;5.13;1.55;;;;;;;19.27;67.08;99727.88;5063535;28;20378;-65
2023/08/07 10:46:17;;;;;;;5.95;1.90;;;;;;;19.27;68.07;99735.06;5059151;28;20113;-65
2023/08/07 10:48:49;;;;;;;;;;;;;;;19.11;68.71;99706.56;5058570;28;20060;-65
2023/08/07 10:51:19;;;;;;;6.35;1.80;;;;;;;19.47;68.31;99701.69;5071687;28;20058;-64
2023/08/07 10:53:51;;;;;;;4.30;1.60;;;;;;;19.68;67.68;99703.84;5049968;28;20068;-65
2023/08/07 10:56:30;;;;;;;4.20;1.55;;;;;;;19.42;67.31;99712.88;5048166;28;20131;-64
2023/08/07 10:58:57;;;;;;;5.05;1.80;;;;;;;19.20;68.84;99711.72;5052037;28;20130;-65
2023/08/07 11:01:30;;;;;;;3.63;1.58;;;;;;;19.19;68.82;99723.41;5055625;28;20488;-64
2023/08/07 11:04:00;;;;;;;4.80;1.50;;;;;;;19.29;68.69;99733.06;5069795;28;20162;-65
2023/08/07 11:06:32;;;;;;;4.85;1.60;;;;;;;19.26;67.67;99750.25;5050748;28;20093;-65
2023/08/07 11:09:00;;;;;;;8.70;1.60;;;;;;;18.90;68.40;99723.06;5050225;28;20321;-66
2023/08/07 11:11:28;;;;;;;3.78;1.50;;;;;;;18.68;70.05;99764.50;5054239;28;20083;-65
2023/08/07 11:13:55;;;;;;;3.45;1.40;;;;;;;18.02;77.52;99759.97;5052203;28;20103;-65
2023/08/07 11:16:23;;;;;;;5.55;1.85;;;;;;;17.11;92.66;99774.47;5051231;28;20095;-66
2023/08/07 11:18:50;;;;;;;4.70;1.63;;;;;;;16.68;99.73;99762.72;5054209;28;20140;-66
2023/08/07 11:21:18;;;;;;;6.85;2.22;;;;;;;16.51;100.00;99754.72;5051452;28;20112;-65
2023/08/07 11:23:46;;;;;;;4.68;2.20;;;;;;;16.78;100.00;99757.38;5047665;28;20107;-65
2023/08/07 11:26:13;;;;;;;7.07;2.05;;;;;;;16.90;100.00;99747.34;5052793;28;20053;-66
2023/08/07 11:28:40;;;;;;;3.33;1.90;;;;;;;17.06;99.32;99757.28;5054070;28;20045;-66
2023/08/07 11:31:08;;;;;;;3.00;1.80;;;;;;;16.90;99.90;99773.94;5049528;28;20459;-65